createdAt,value
2022-08-17T00:00:34.379Z,21.22
2022-08-17T00:03:09.995Z,21.12
2022-08-17T00:05:43.827Z,21.10
2022-08-17T00:08:16.892Z,21.07
2022-08-17T00:10:46.377Z,21.17
2022-08-17T00:13:17.410Z,21.21
2022-08-17T00:15:45.853Z,21.15
2022-08-17T00:19:05.690Z,21.03
2022-08-17T00:21:10.468Z,20.87
2022-08-17T00:23:39.389Z,20.61
2022-08-17T00:26:14.631Z,20.51
2022-08-17T00:29:02.757Z,20.54
2022-08-17T00:31:31.772Z,20.75
2022-08-17T00:34:01.058Z,20.81
2022-08-17T00:36:29.669Z,20.92
2022-08-17T00:38:57.690Z,21.01
2022-08-17T00:41:28.071Z,21.13
2022-08-17T00:43:58.465Z,21.18
2022-08-17T00:46:29.592Z,21.29
2022-08-17T00:48:58.006Z,21.32
2022-08-17T00:51:33.437Z,21.37
2022-08-17T00:54:05.711Z,21.21
2022-08-17T00:56:37.435Z,21.14
2022-08-17T00:59:07.613Z,21.10
2022-08-17T01:01:36.126Z,21.12
2022-08-17T01:04:05.095Z,21.08
2022-08-17T01:06:34.830Z,21.12
2022-08-17T01:09:04.711Z,21.12
2022-08-17T01:11:36.514Z,20.97
2022-08-17T01:14:04.836Z,20.89
2022-08-17T01:16:33.675Z,20.80
2022-08-17T01:19:06.034Z,20.71
2022-08-17T01:21:42.620Z,20.71
2022-08-17T01:24:12.534Z,20.69
2022-08-17T01:26:41.976Z,20.49
2022-08-17T01:29:10.599Z,20.39
2022-08-17T01:31:41.510Z,20.36
2022-08-17T01:34:12.231Z,20.40
2022-08-17T01:36:42.798Z,20.37
2022-08-17T01:39:18.862Z,20.26
2022-08-17T01:41:52.486Z,20.29
2022-08-17T01:44:21.735Z,20.24
2022-08-17T01:46:49.983Z,20.12
2022-08-17T01:49:20.310Z,20.15
2022-08-17T01:51:48.500Z,20.05
2022-08-17T01:54:19.889Z,19.98
2022-08-17T01:56:50.777Z,19.96
2022-08-17T01:59:20.734Z,19.92
2022-08-17T02:01:48.958Z,19.87
2022-08-17T02:04:17.097Z,20.00
2022-08-17T02:06:53.400Z,20.10
2022-08-17T02:09:26.187Z,20.15
2022-08-17T02:11:58.991Z,20.13
2022-08-17T02:14:27.377Z,20.06
2022-08-17T02:16:56.072Z,20.19
2022-08-17T02:19:24.378Z,20.18
2022-08-17T02:21:54.774Z,20.21
2022-08-17T02:25:01.218Z,20.25
2022-08-17T02:27:16.576Z,20.23
2022-08-17T02:29:44.502Z,20.23
2022-08-17T02:32:25.418Z,20.20
2022-08-17T02:34:55.931Z,20.17
2022-08-17T02:37:23.845Z,20.09
2022-08-17T02:39:53.677Z,20.17
2022-08-17T02:42:25.995Z,20.04
2022-08-17T02:44:53.936Z,20.01
2022-08-17T02:47:21.857Z,20.04
2022-08-17T02:49:55.628Z,19.96
2022-08-17T02:52:42.907Z,19.97
2022-08-17T02:55:15.663Z,19.96
2022-08-17T02:57:43.867Z,19.94
2022-08-17T03:00:15.981Z,20.02
2022-08-17T03:02:45.084Z,20.10
2022-08-17T03:05:17.588Z,20.13
2022-08-17T03:07:45.513Z,20.08
2022-08-17T03:10:17.272Z,20.01
2022-08-17T03:12:46.878Z,20.17
2022-08-17T03:15:17.477Z,20.16
2022-08-17T03:17:46.288Z,20.05
2022-08-17T03:20:16.074Z,20.11
2022-08-17T03:22:48.096Z,20.07
2022-08-17T03:25:25.911Z,20.07
2022-08-17T03:27:55.104Z,20.12
2022-08-17T03:30:24.021Z,20.26
2022-08-17T03:32:54.759Z,20.33
2022-08-17T03:35:25.256Z,20.47
2022-08-17T03:38:00.733Z,20.47
2022-08-17T03:40:39.894Z,20.38
2022-08-17T03:43:21.708Z,20.44
2022-08-17T03:46:11.012Z,20.52
2022-08-17T03:49:12.830Z,20.56
2022-08-17T03:51:58.195Z,20.53
2022-08-17T03:54:43.670Z,20.42
2022-08-17T03:57:13.582Z,20.39
2022-08-17T03:59:42.359Z,20.57
2022-08-17T04:02:14.494Z,20.57
2022-08-17T04:04:42.710Z,20.81
2022-08-17T04:07:11.378Z,20.64
2022-08-17T04:09:39.336Z,20.88
2022-08-17T04:12:07.530Z,20.79
2022-08-17T04:14:51.785Z,20.76
2022-08-17T04:17:24.114Z,20.83
2022-08-17T04:19:52.932Z,20.96
2022-08-17T04:22:31.318Z,20.98
2022-08-17T04:25:05.218Z,20.80
2022-08-17T04:27:33.271Z,20.72
2022-08-17T04:30:02.915Z,20.67
2022-08-17T04:33:05.366Z,20.82
2022-08-17T04:35:22.136Z,20.73
2022-08-17T04:37:50.080Z,20.63
2022-08-17T04:40:36.238Z,20.62
2022-08-17T04:43:05.768Z,20.45
2022-08-17T04:45:35.541Z,20.45
2022-08-17T04:48:04.270Z,20.53
2022-08-17T04:50:32.746Z,20.69
2022-08-17T04:53:01.319Z,20.67
2022-08-17T04:55:29.818Z,20.78
2022-08-17T04:57:58.052Z,20.96
2022-08-17T05:00:27.033Z,20.87
2022-08-17T05:02:57.370Z,20.84
2022-08-17T05:05:28.112Z,20.98
2022-08-17T05:07:58.917Z,21.18
2022-08-17T05:10:30.886Z,20.99
2022-08-17T05:13:00.556Z,21.08
2022-08-17T05:15:29.619Z,21.17
2022-08-17T05:18:02.994Z,21.16
2022-08-17T05:20:31.856Z,21.29
2022-08-17T05:23:04.590Z,21.30
2022-08-17T05:25:38.075Z,21.30
2022-08-17T05:28:07.475Z,21.23
2022-08-17T05:30:37.209Z,21.32
2022-08-17T05:33:08.756Z,21.30
2022-08-17T05:35:39.916Z,21.36
2022-08-17T05:38:08.635Z,21.45
2022-08-17T05:40:37.608Z,21.46
2022-08-17T05:43:08.136Z,21.59
2022-08-17T05:45:54.678Z,21.65
2022-08-17T05:48:39.447Z,21.81
2022-08-17T05:51:28.763Z,21.86
2022-08-17T05:54:11.475Z,21.92
2022-08-17T05:56:56.203Z,21.96
2022-08-17T05:59:34.389Z,21.94
2022-08-17T06:02:11.044Z,21.88
2022-08-17T06:04:55.365Z,21.79
2022-08-17T06:07:32.627Z,21.71
2022-08-17T06:10:07.358Z,21.73
2022-08-17T06:12:54.106Z,21.70
2022-08-17T06:15:33.690Z,21.66
2022-08-17T06:18:06.979Z,21.70
2022-08-17T06:20:47.859Z,21.72
2022-08-17T06:23:22.829Z,21.78
2022-08-17T06:25:54.686Z,21.84
2022-08-17T06:28:30.052Z,22.16
2022-08-17T06:31:03.194Z,22.02
2022-08-17T06:33:36.534Z,22.00
2022-08-17T06:36:17.501Z,22.06
2022-08-17T06:38:58.330Z,21.87
2022-08-17T06:41:37.988Z,21.87
2022-08-17T06:44:49.783Z,21.94
2022-08-17T06:47:28.609Z,21.76
2022-08-17T06:50:07.094Z,21.71
2022-08-17T06:52:46.860Z,21.78
2022-08-17T06:55:21.190Z,21.84
2022-08-17T06:57:54.208Z,21.90
2022-08-17T07:00:24.945Z,21.86
2022-08-17T07:02:56.810Z,21.85
2022-08-17T07:05:28.581Z,21.87
2022-08-17T07:08:02.724Z,21.87
2022-08-17T07:10:37.656Z,21.76
2022-08-17T07:13:23.469Z,21.41
2022-08-17T07:15:57.183Z,21.26
2022-08-17T07:18:33.064Z,21.29
2022-08-17T07:21:17.588Z,21.47
2022-08-17T07:24:01.867Z,21.58
2022-08-17T07:26:30.112Z,21.60
2022-08-17T07:29:00.651Z,21.68
2022-08-17T07:31:33.516Z,21.74
2022-08-17T07:34:14.608Z,21.74
2022-08-17T07:36:42.665Z,21.73
2022-08-17T07:39:12.126Z,21.79
2022-08-17T07:41:53.194Z,21.75
2022-08-17T07:44:27.621Z,21.80
2022-08-17T07:47:28.799Z,21.85
2022-08-17T07:49:56.780Z,21.86
2022-08-17T07:52:50.875Z,21.85
2022-08-17T07:55:32.799Z,21.81
2022-08-17T07:58:01.826Z,21.75
2022-08-17T08:00:32.519Z,21.67
2022-08-17T08:03:18.289Z,21.58
2022-08-17T08:05:57.387Z,21.53
2022-08-17T08:08:29.920Z,21.40
2022-08-17T08:11:10.262Z,21.27
2022-08-17T08:13:43.902Z,21.34
2022-08-17T08:16:29.409Z,21.38
2022-08-17T08:19:00.022Z,21.44
2022-08-17T08:21:47.305Z,21.31
2022-08-17T08:24:40.922Z,21.41
2022-08-17T08:27:27.095Z,21.43
2022-08-17T08:30:02.952Z,21.22
2022-08-17T08:32:50.319Z,21.08
2022-08-17T08:35:30.946Z,21.14
2022-08-17T08:38:09.615Z,21.14
2022-08-17T08:41:02.431Z,21.15
2022-08-17T08:43:41.550Z,21.39
2022-08-17T08:46:22.666Z,21.28
2022-08-17T08:49:58.993Z,21.32
2022-08-17T08:52:32.371Z,21.45
2022-08-17T08:55:10.232Z,21.62
2022-08-17T08:57:45.105Z,21.81
2022-08-17T09:00:19.037Z,21.98
2022-08-17T09:03:17.023Z,22.33
2022-08-17T09:06:03.054Z,22.90
2022-08-17T09:08:42.610Z,23.09
2022-08-17T09:11:18.322Z,23.28
2022-08-17T09:13:58.246Z,23.35
2022-08-17T09:16:33.173Z,23.38
2022-08-17T09:19:06.918Z,23.31
2022-08-17T09:21:47.702Z,23.42
2022-08-17T09:24:22.806Z,23.48
2022-08-17T09:26:58.835Z,23.51
2022-08-17T09:29:30.537Z,23.82
2022-08-17T09:32:03.724Z,24.02
2022-08-17T09:34:36.176Z,23.77
2022-08-17T09:37:17.071Z,23.72
2022-08-17T09:39:54.026Z,23.86
2022-08-17T09:42:29.162Z,24.17
2022-08-17T09:45:08.211Z,24.51
2022-08-17T09:47:46.697Z,25.68
2022-08-17T09:50:20.145Z,25.26
2022-08-17T09:53:09.177Z,24.90
2022-08-17T09:55:49.095Z,24.81
2022-08-17T09:58:25.661Z,24.73
2022-08-17T10:01:04.554Z,24.50
2022-08-17T10:03:59.400Z,24.39
2022-08-17T10:06:33.569Z,24.16
2022-08-17T10:09:08.995Z,24.08
2022-08-17T10:12:04.617Z,23.94
2022-08-17T10:14:43.876Z,23.75
2022-08-17T10:17:22.525Z,23.66
2022-08-17T10:20:00.418Z,23.58
2022-08-17T10:22:54.928Z,23.48
2022-08-17T10:25:54.597Z,23.39
2022-08-17T10:28:29.858Z,23.40
2022-08-17T10:31:30.968Z,23.56
2022-08-17T10:34:01.220Z,23.71
2022-08-17T10:36:43.191Z,23.90
2022-08-17T10:39:21.185Z,23.98
2022-08-17T10:41:53.976Z,24.06
2022-08-17T10:44:39.012Z,24.14
2022-08-17T10:47:11.618Z,24.23
2022-08-17T10:49:47.810Z,24.38
2022-08-17T10:52:52.325Z,24.40
2022-08-17T10:55:21.411Z,24.53
2022-08-17T10:57:55.045Z,24.76
2022-08-17T11:00:57.764Z,25.62
2022-08-17T11:03:27.601Z,26.84
2022-08-17T11:06:12.557Z,27.77
2022-08-17T11:09:16.513Z,28.26
2022-08-17T11:12:06.752Z,29.35
2022-08-17T11:14:50.165Z,29.73
2022-08-17T11:17:45.513Z,29.69
2022-08-17T11:20:46.676Z,28.78
2022-08-17T11:23:50.222Z,29.26
2022-08-17T11:26:27.104Z,28.55
2022-08-17T11:29:01.416Z,28.52
2022-08-17T11:31:38.396Z,28.93
2022-08-17T11:34:17.081Z,29.50
2022-08-17T11:37:22.027Z,28.18
2022-08-17T11:40:16.071Z,28.15
2022-08-17T11:43:00.676Z,28.19
2022-08-17T11:45:50.986Z,30.48
2022-08-17T11:48:44.781Z,30.82
2022-08-17T11:51:34.727Z,30.31
2022-08-17T11:57:00.019Z,27.77
2022-08-17T12:00:00.027Z,27.16
2022-08-17T12:02:35.555Z,27.25
2022-08-17T12:05:26.042Z,26.98
2022-08-17T12:08:11.759Z,26.92
2022-08-17T12:10:57.383Z,27.12
2022-08-17T12:13:39.368Z,27.03
2022-08-17T12:16:15.209Z,27.07
2022-08-17T12:18:51.630Z,27.26
2022-08-17T12:21:38.674Z,27.62
2022-08-17T12:24:15.681Z,28.23
2022-08-17T12:26:45.256Z,28.03
2022-08-17T12:29:35.824Z,28.36
2022-08-17T12:32:17.810Z,28.25
2022-08-17T12:34:47.828Z,28.48
2022-08-17T12:37:22.794Z,28.51
2022-08-17T12:39:54.657Z,28.39
2022-08-17T12:42:26.773Z,27.73
2022-08-17T12:44:54.947Z,27.62
2022-08-17T12:47:29.561Z,27.39
2022-08-17T12:50:08.471Z,27.21
2022-08-17T12:53:02.219Z,26.99
2022-08-17T12:55:38.874Z,26.97
2022-08-17T12:58:12.238Z,27.29
2022-08-17T13:00:51.125Z,27.52
2022-08-17T13:03:24.463Z,27.77
2022-08-17T13:05:58.986Z,28.77
2022-08-17T13:08:35.875Z,30.29
2022-08-17T13:11:09.386Z,30.86
2022-08-17T13:13:43.776Z,29.67
2022-08-17T13:16:19.098Z,29.73
2022-08-17T13:18:51.936Z,29.33
2022-08-17T13:21:27.754Z,29.34
2022-08-17T13:24:03.577Z,29.93
2022-08-17T13:26:37.974Z,30.36
2022-08-17T13:29:08.128Z,30.44
2022-08-17T13:31:42.876Z,30.67
2022-08-17T13:35:01.675Z,31.11
2022-08-17T13:37:36.333Z,31.58
2022-08-17T13:40:29.692Z,31.52
2022-08-17T13:42:58.559Z,31.88
2022-08-17T13:45:52.923Z,31.76
2022-08-17T13:48:25.826Z,31.17
2022-08-17T13:51:20.894Z,31.63
2022-08-17T13:54:15.044Z,32.49
2022-08-17T13:57:04.236Z,32.17
2022-08-17T13:59:53.004Z,31.80
2022-08-17T14:02:25.988Z,31.62
2022-08-17T14:05:02.039Z,31.48
2022-08-17T14:07:45.763Z,31.51
2022-08-17T14:10:17.434Z,32.24
2022-08-17T14:12:46.622Z,32.65
2022-08-17T14:15:17.877Z,32.53
2022-08-17T14:17:52.275Z,32.35
2022-08-17T14:20:22.515Z,32.09
2022-08-17T14:22:55.686Z,31.87
2022-08-17T14:25:26.342Z,32.14
2022-08-17T14:27:55.716Z,32.11
2022-08-17T14:30:26.013Z,31.74
2022-08-17T14:32:56.615Z,31.51
2022-08-17T14:35:27.392Z,31.72
2022-08-17T14:37:58.729Z,31.48
2022-08-17T14:40:28.024Z,31.27
2022-08-17T14:42:57.791Z,30.41
2022-08-17T14:45:32.553Z,29.91
2022-08-17T14:48:05.651Z,29.64
2022-08-17T14:50:35.827Z,29.77
2022-08-17T14:53:08.002Z,29.79
2022-08-17T14:55:39.668Z,29.94
2022-08-17T14:58:08.821Z,29.79
2022-08-17T15:00:37.607Z,29.63
2022-08-17T15:03:06.030Z,29.63
2022-08-17T15:05:36.651Z,29.49
2022-08-17T15:08:07.110Z,29.38
2022-08-17T15:10:35.892Z,29.41
2022-08-17T15:13:05.052Z,29.36
2022-08-17T15:15:34.136Z,29.29
2022-08-17T15:18:02.600Z,29.33
2022-08-17T15:20:31.525Z,29.29
2022-08-17T15:23:00.275Z,29.37
2022-08-17T15:25:32.163Z,29.30
2022-08-17T15:28:01.614Z,29.59
2022-08-17T15:30:30.967Z,29.78
2022-08-17T15:33:00.521Z,29.89
2022-08-17T15:35:31.423Z,29.70
2022-08-17T15:38:04.571Z,29.64
2022-08-17T15:40:40.438Z,29.63
2022-08-17T15:43:11.219Z,29.69
2022-08-17T15:45:40.318Z,29.70
2022-08-17T15:48:09.146Z,29.74
2022-08-17T15:50:37.334Z,29.48
2022-08-17T15:53:05.538Z,29.36
2022-08-17T15:55:34.946Z,29.41
2022-08-17T15:58:04.558Z,29.34
2022-08-17T16:00:39.793Z,29.23
2022-08-17T16:03:45.087Z,29.08
2022-08-17T16:06:09.767Z,29.07
2022-08-17T16:08:41.586Z,28.94
2022-08-17T16:11:10.993Z,28.78
2022-08-17T16:13:41.560Z,28.79
2022-08-17T16:16:10.770Z,28.83
2022-08-17T16:18:39.775Z,28.85
2022-08-17T16:21:42.399Z,28.75
2022-08-17T16:24:13.736Z,28.63
2022-08-17T16:26:43.578Z,28.52
2022-08-17T16:29:12.762Z,28.51
2022-08-17T16:31:41.759Z,28.46
2022-08-17T16:34:18.024Z,28.35
2022-08-17T16:36:55.198Z,28.32
2022-08-17T16:39:24.040Z,28.22
2022-08-17T16:41:52.025Z,28.20
2022-08-17T16:44:22.740Z,28.14
2022-08-17T16:46:51.238Z,28.17
2022-08-17T16:49:35.706Z,28.11
2022-08-17T16:52:09.821Z,28.14
2022-08-17T16:54:40.546Z,28.17
2022-08-17T16:57:08.802Z,28.09
2022-08-17T16:59:40.769Z,28.03
2022-08-17T17:02:15.675Z,27.95
2022-08-17T17:04:52.950Z,27.92
2022-08-17T17:07:39.151Z,27.89
2022-08-17T17:10:11.518Z,27.81
2022-08-17T17:13:01.041Z,27.82
2022-08-17T17:15:41.440Z,27.78
2022-08-17T17:18:13.938Z,27.78
2022-08-17T17:20:48.585Z,27.75
2022-08-17T17:23:29.207Z,27.81
2022-08-17T17:26:08.142Z,27.81
2022-08-17T17:28:46.231Z,27.73
2022-08-17T17:31:17.986Z,27.68
2022-08-17T17:33:48.829Z,27.65
2022-08-17T17:36:27.515Z,27.58
2022-08-17T17:39:00.227Z,27.52
2022-08-17T17:41:34.185Z,27.42
2022-08-17T17:44:07.473Z,27.30
2022-08-17T17:46:40.750Z,27.22
2022-08-17T17:49:10.658Z,27.17
2022-08-17T17:52:09.555Z,27.14
2022-08-17T17:54:51.094Z,27.02
2022-08-17T17:57:26.746Z,26.96
2022-08-17T18:00:03.772Z,26.92
2022-08-17T18:02:57.319Z,26.85
2022-08-17T18:05:49.920Z,26.74
2022-08-17T18:08:32.175Z,26.65
2022-08-17T18:11:14.125Z,26.57
2022-08-17T18:13:56.300Z,26.44
2022-08-17T18:16:24.921Z,26.28
2022-08-17T18:18:58.677Z,26.24
2022-08-17T18:21:39.276Z,26.20
2022-08-17T18:24:10.604Z,26.12
2022-08-17T18:26:44.913Z,26.04
2022-08-17T18:29:32.389Z,26.05
2022-08-17T18:32:23.798Z,26.00
2022-08-17T18:34:56.527Z,25.94
2022-08-17T18:37:44.995Z,25.81
2022-08-17T18:40:36.218Z,25.75
2022-08-17T18:43:24.221Z,25.68
2022-08-17T18:45:54.466Z,25.61
2022-08-17T18:48:27.487Z,25.55
2022-08-17T18:50:59.700Z,25.46
2022-08-17T18:53:37.426Z,25.48
2022-08-17T18:56:33.227Z,25.44
2022-08-17T18:59:11.220Z,25.38
2022-08-17T19:01:52.526Z,25.30
2022-08-17T19:04:35.061Z,25.26
2022-08-17T19:07:25.632Z,25.30
2022-08-17T19:09:58.296Z,25.22
2022-08-17T19:12:31.056Z,25.16
2022-08-17T19:15:01.008Z,25.17
2022-08-17T19:17:37.571Z,25.10
2022-08-17T19:20:13.936Z,25.04
2022-08-17T19:22:55.043Z,24.96
2022-08-17T19:25:27.398Z,24.86
2022-08-17T19:28:00.161Z,24.76
2022-08-17T19:30:28.927Z,24.71
2022-08-17T19:32:58.435Z,24.63
2022-08-17T19:35:34.360Z,24.60
2022-08-17T19:38:12.764Z,24.45
2022-08-17T19:41:04.724Z,24.46
2022-08-17T19:43:55.347Z,24.48
2022-08-17T19:46:30.787Z,24.49
2022-08-17T19:49:11.133Z,24.49
2022-08-17T19:51:48.125Z,24.45
2022-08-17T19:54:26.431Z,24.41
2022-08-17T19:57:01.752Z,24.39
2022-08-17T19:59:48.918Z,24.26
2022-08-17T20:02:37.481Z,24.16
2022-08-17T20:05:13.756Z,24.05
2022-08-17T20:07:48.758Z,24.04
2022-08-17T20:10:31.555Z,24.04
2022-08-17T20:13:06.318Z,24.06
2022-08-17T20:15:37.801Z,24.06
2022-08-17T20:18:17.418Z,24.08
2022-08-17T20:20:54.908Z,24.07
2022-08-17T20:23:45.131Z,24.04
2022-08-17T20:26:22.521Z,24.10
2022-08-17T20:29:09.995Z,24.06
2022-08-17T20:31:45.741Z,24.07
2022-08-17T20:34:36.945Z,24.07
2022-08-17T20:37:08.609Z,24.10
2022-08-17T20:39:40.677Z,24.06
2022-08-17T20:42:29.534Z,24.07
2022-08-17T20:45:02.374Z,24.04
2022-08-17T20:47:34.829Z,24.06
2022-08-17T20:50:06.885Z,24.07
2022-08-17T20:52:53.312Z,24.10
2022-08-17T20:55:53.294Z,24.08
2022-08-17T20:58:48.560Z,24.03
2022-08-17T21:01:24.423Z,24.03
2022-08-17T21:03:56.363Z,24.00
2022-08-17T21:06:26.003Z,24.00
2022-08-17T21:08:58.630Z,23.95
2022-08-17T21:12:04.273Z,23.91
2022-08-17T21:14:51.995Z,23.87
2022-08-17T21:17:41.854Z,23.84
2022-08-17T21:20:26.998Z,23.87
2022-08-17T21:23:27.841Z,23.95
2022-08-17T21:26:11.115Z,24.28
2022-08-17T21:29:00.379Z,24.35
2022-08-17T21:31:37.964Z,24.51
2022-08-17T21:34:30.614Z,24.61
2022-08-17T21:37:28.518Z,24.63
2022-08-17T21:40:00.034Z,24.75
2022-08-17T21:42:31.620Z,24.76
2022-08-17T21:45:09.147Z,24.69
2022-08-17T21:47:48.690Z,24.59
2022-08-17T21:50:21.165Z,24.56
2022-08-17T21:52:51.520Z,24.60
2022-08-17T21:55:28.055Z,24.60
2022-08-17T21:58:14.958Z,24.54
2022-08-17T22:00:45.101Z,24.66
2022-08-17T22:03:25.852Z,24.63
2022-08-17T22:05:53.819Z,24.52
2022-08-17T22:08:24.242Z,24.36
2022-08-17T22:11:01.532Z,24.23
2022-08-17T22:13:30.151Z,23.88
2022-08-17T22:16:15.343Z,24.02
2022-08-17T22:18:59.651Z,23.81
2022-08-17T22:21:28.144Z,23.79
2022-08-17T22:24:07.434Z,23.58
2022-08-17T22:27:03.702Z,23.46
2022-08-17T22:29:57.378Z,23.39
2022-08-17T22:32:38.548Z,23.15
2022-08-17T22:35:38.813Z,23.22
2022-08-17T22:38:26.377Z,23.12
2022-08-17T22:40:58.529Z,23.16
2022-08-17T22:43:28.957Z,23.05
2022-08-17T22:46:00.946Z,22.87
2022-08-17T22:48:31.180Z,22.73
2022-08-17T22:51:12.866Z,22.83
2022-08-17T22:54:10.686Z,22.89
2022-08-17T22:56:56.760Z,22.96
2022-08-17T22:59:43.593Z,22.74
2022-08-17T23:02:15.451Z,22.56
2022-08-17T23:04:47.762Z,22.49
2022-08-17T23:07:17.473Z,22.49
2022-08-17T23:09:45.798Z,22.56
2022-08-17T23:12:23.563Z,22.71
2022-08-17T23:14:58.405Z,22.76
2022-08-17T23:17:27.504Z,22.88
2022-08-17T23:19:57.094Z,22.91
2022-08-17T23:22:26.394Z,22.98
2022-08-17T23:24:54.583Z,22.92
2022-08-17T23:27:23.183Z,22.91
2022-08-17T23:29:51.431Z,22.82
2022-08-17T23:32:19.740Z,22.75
2022-08-17T23:34:49.414Z,22.67
2022-08-17T23:37:19.367Z,22.67
2022-08-17T23:39:48.761Z,22.60
2022-08-17T23:42:21.708Z,22.61
2022-08-17T23:44:50.531Z,22.62
2022-08-17T23:47:18.489Z,22.52
2022-08-17T23:49:46.393Z,22.47
2022-08-17T23:52:16.602Z,22.58
2022-08-17T23:54:48.316Z,22.61
2022-08-17T23:57:19.138Z,22.63
2022-08-17T23:59:48.882Z,22.54
